Time;durP1;ratioP1;P1;durP2;ratioP2;P2;SDS_P1;SDS_P2;PMS_P1;PMS_P2;Temp;Humidity;BMP_temperature;BMP_pressure;BME280_temperature;BME280_humidity;BME280_pressure;Samples;Min_cycle;Max_cycle;Signal;HPM_P1;HPM_P2
2021/10/17 00:01:03;;;;;;;;;;;;;;;15.42;48.41;101728.94;6193178;22;100281;-85
2021/10/17 00:03:30;;;;;;;;;;;;;;;15.52;48.02;101733.00;6192848;22;100179;-85
2021/10/17 00:05:57;;;;;;;;;;;;;;;15.40;48.04;101733.44;6193379;22;96700;-85
2021/10/17 00:08:24;;;;;;;;;;;;;;;15.41;48.25;101737.84;6194159;22;96732;-84
2021/10/17 00:10:53;;;;;;;;;;;;;;;15.38;48.62;101724.66;6195194;22;98067;-84
2021/10/17 00:13:19;;;;;;;;;;;;;;;15.44;48.42;101721.75;6166089;22;96672;-85
2021/10/17 00:15:51;;;;;;;;;;;;;;;15.52;48.08;101714.34;6192241;22;96818;-85
2021/10/17 00:18:20;;;;;;;;;;;;;;;15.41;48.27;101708.56;6169113;22;96780;-85
2021/10/17 00:20:57;;;;;;;;;;;;;;;15.47;48.15;101716.31;6198143;22;98813;-85
2021/10/17 00:23:24;;;;;;;;;;;;;;;15.35;48.66;101714.13;6207484;22;100070;-84
2021/10/17 00:25:53;;;;;;;;;;;;;;;15.40;48.62;101719.28;6212254;22;96346;-85
2021/10/17 00:28:22;;;;;;;;;;;;;;;15.35;48.90;101723.91;6196975;22;96464;-85
2021/10/17 00:30:50;;;;;;;;;;;;;;;15.41;48.71;101721.88;6194356;22;96899;-84
2021/10/17 00:33:16;;;;;;;;;;;;;;;15.36;48.44;101715.00;6194214;22;100168;-84
2021/10/17 00:35:45;;;;;;;;;;;;;;;15.37;48.18;101716.72;6212657;22;95898;-85
2021/10/17 00:38:16;;;;;;;;;;;;;;;15.23;48.67;101714.59;6208371;22;96478;-83
2021/10/17 00:40:42;;;;;;;;;;;;;;;15.43;48.44;101714.66;6209891;22;101753;-84
2021/10/17 00:43:08;;;;;;;;;;;;;;;15.58;47.79;101715.88;6211865;22;97947;-85
2021/10/17 00:45:35;;;;;;;;;;;;;;;15.32;48.07;101719.56;6212238;22;96458;-85
2021/10/17 00:48:04;;;;;;;;;;;;;;;15.36;48.13;101712.34;6186364;22;96464;-84
2021/10/17 00:50:31;;;;;;;;;;;;;;;15.38;48.11;101714.00;6211700;22;98435;-85
2021/10/17 00:53:02;;;;;;;;;;;;;;;15.30;47.69;101715.22;6194631;22;99107;-84
2021/10/17 00:55:30;;;;;;;;;;;;;;;15.33;47.58;101710.66;6198060;22;97041;-83
2021/10/17 00:58:01;;;;;;;;;;;;;;;15.20;47.76;101720.06;6193907;22;96878;-84
2021/10/17 01:00:28;;;;;;;;;;;;;;;15.33;47.80;101710.66;6167068;22;97790;-84
2021/10/17 01:02:55;;;;;;;;;;;;;;;15.22;47.77;101712.03;6195588;22;98023;-85
2021/10/17 01:05:23;;;;;;;;;;;;;;;14.23;49.73;101713.03;6194433;22;96717;-84
2021/10/17 01:07:50;;;;;;;;;;;;;;;14.90;48.48;101713.28;6194114;22;96763;-84
2021/10/17 01:10:18;;;;;;;;;;;;;;;15.01;48.01;101703.06;6193234;22;98971;-85
2021/10/17 01:12:55;;;;;;;;;;;;;;;15.13;47.70;101702.59;6193813;22;98778;-86
2021/10/17 01:15:24;;;;;;;;;;;;;;;15.32;46.86;101703.59;6195175;22;96672;-82
2021/10/17 01:17:51;;;;;;;;;;;;;;;15.23;47.10;101706.59;6200287;22;96546;-84
2021/10/17 01:20:21;;;;;;;;;;;;;;;15.23;47.04;101700.44;6193866;22;101194;-85
2021/10/17 01:22:48;;;;;;;;;;;;;;;15.14;47.25;101707.00;6193998;22;100926;-84
2021/10/17 01:25:14;;;;;;;;;;;;;;;15.14;46.75;101697.22;6195592;22;96681;-84
2021/10/17 01:27:41;;;;;;;;;;;;;;;15.21;46.89;101695.19;6198387;22;96795;-86
2021/10/17 01:38:14;;;;;;;;;;;;;;;15.04;46.47;101676.31;6119283;22;95953;-87
2021/10/17 01:40:41;;;;;;;;;;;;;;;14.97;46.51;101677.47;6093100;23;97751;-86
2021/10/17 01:43:12;;;;;;;;;;;;;;;15.05;46.33;101678.06;6118769;23;100021;-86
2021/10/17 01:48:22;;;;;;;;;;;;;;;14.97;46.15;101681.00;6115461;23;97010;-86
2021/10/17 01:50:58;;;;;;;;;;;;;;;15.14;45.96;101677.72;6109127;23;100106;-87
2021/10/17 01:53:28;;;;;;;;;;;;;;;14.98;46.13;101676.56;6106724;23;99690;-84
2021/10/17 01:55:55;;;;;;;;;;;;;;;14.91;45.94;101677.72;6106294;23;96916;-85
2021/10/17 01:58:24;;;;;;;;;;;;;;;14.88;46.06;101672.53;6105215;23;96703;-86
2021/10/17 02:00:51;;;;;;;;;;;;;;;14.99;45.62;101671.19;6102527;23;96843;-85
2021/10/17 02:03:18;;;;;;;;;;;;;;;14.62;45.71;101661.09;6075849;23;99066;-85
2021/10/17 02:05:46;;;;;;;;;;;;;;;14.77;45.59;101666.78;6104376;23;96669;-85
2021/10/17 02:08:17;;;;;;;;;;;;;;;14.95;45.63;101658.06;6103988;23;96729;-85
2021/10/17 02:10:44;;;;;;;;;;;;;;;14.81;44.63;101663.91;6102443;23;100172;-86
2021/10/17 02:13:11;;;;;;;;;;;;;;;14.86;44.83;101669.06;6104137;23;97994;-86
2021/10/17 02:15:40;;;;;;;;;;;;;;;15.11;44.56;101660.06;6106289;23;97081;-85
2021/10/17 02:18:09;;;;;;;;;;;;;;;15.09;44.52;101653.94;6077243;23;96867;-85
2021/10/17 02:20:36;;;;;;;;;;;;;;;15.18;44.61;101649.16;6100602;23;100837;-84
2021/10/17 02:23:04;;;;;;;;;;;;;;;15.00;44.54;101643.66;6100613;23;100042;-85
2021/10/17 02:25:34;;;;;;;;;;;;;;;15.17;44.30;101645.63;6077324;23;96730;-85
2021/10/17 02:28:02;;;;;;;;;;;;;;;15.10;44.41;101647.66;6121517;22;96722;-84
2021/10/17 02:30:29;;;;;;;;;;;;;;;15.22;44.40;101649.00;6106033;23;99854;-84
2021/10/17 02:32:56;;;;;;;;;;;;;;;15.10;44.38;101639.69;6116728;22;99104;-85
2021/10/17 02:35:25;;;;;;;;;;;;;;;15.28;44.45;101646.06;6119581;22;96463;-86
2021/10/17 02:37:53;;;;;;;;;;;;;;;15.15;44.64;101637.72;6104440;23;96510;-85
2021/10/17 02:40:23;;;;;;;;;;;;;;;15.13;44.65;101639.56;6078458;23;97852;-85
2021/10/17 02:42:53;;;;;;;;;;;;;;;15.19;44.52;101638.44;6101531;23;98475;-85
2021/10/17 02:45:20;;;;;;;;;;;;;;;15.26;44.39;101634.59;6078894;23;96664;-84
2021/10/17 02:47:48;;;;;;;;;;;;;;;15.24;44.56;101633.78;6105918;23;96499;-84
2021/10/17 02:50:15;;;;;;;;;;;;;;;15.28;44.47;101631.91;6109931;23;100160;-85
2021/10/17 02:52:42;;;;;;;;;;;;;;;15.07;45.01;101634.50;6105307;23;97784;-84
2021/10/17 02:55:09;;;;;;;;;;;;;;;15.03;45.16;101632.03;6107707;23;96654;-85
2021/10/17 02:57:38;;;;;;;;;;;;;;;15.27;44.65;101632.81;6104934;23;97118;-85
2021/10/17 03:00:08;;;;;;;;;;;;;;;15.23;45.03;101634.72;6078971;23;98391;-84
2021/10/17 03:02:38;;;;;;;;;;;;;;;15.06;45.29;101631.88;6104993;23;98224;-83
2021/10/17 03:05:04;;;;;;;;;;;;;;;15.02;45.59;101628.50;6080474;23;96832;-83
2021/10/17 03:07:31;;;;;;;;;;;;;;;15.01;45.72;101633.88;6104116;23;96844;-84
2021/10/17 03:09:59;;;;;;;;;;;;;;;15.07;45.51;101617.66;6101758;23;97010;-84
2021/10/17 03:12:26;;;;;;;;;;;;;;;14.97;45.77;101633.09;6101908;23;99171;-84
2021/10/17 03:14:55;;;;;;;;;;;;;;;15.01;45.73;101637.41;6075494;23;96769;-84
2021/10/17 03:17:23;;;;;;;;;;;;;;;15.07;45.66;101631.84;6101714;23;96815;-84
2021/10/17 03:19:49;;;;;;;;;;;;;;;15.20;45.53;101634.00;6100790;23;100153;-83
2021/10/17 03:22:16;;;;;;;;;;;;;;;15.06;45.83;101632.75;6100478;23;96749;-83
2021/10/17 03:24:43;;;;;;;;;;;;;;;14.98;45.98;101631.31;6101437;23;96648;-83
2021/10/17 03:27:09;;;;;;;;;;;;;;;15.11;45.57;101635.22;6102815;23;96657;-83
2021/10/17 03:29:39;;;;;;;;;;;;;;;15.07;45.61;101634.50;6111623;23;98113;-83
2021/10/17 03:32:07;;;;;;;;;;;;;;;14.93;45.46;101623.53;6111070;23;99848;-83
2021/10/17 03:34:53;;;;;;;;;;;;;;;14.87;46.01;101612.25;6117145;23;96404;-83
2021/10/17 03:37:21;;;;;;;;;;;;;;;14.69;46.45;101609.41;6121225;23;96339;-83
2021/10/17 03:39:47;;;;;;;;;;;;;;;14.67;46.30;101605.06;6120483;23;98411;-83
2021/10/17 03:42:14;;;;;;;;;;;;;;;14.67;46.13;101613.03;6094789;23;98933;-83
2021/10/17 03:44:42;;;;;;;;;;;;;;;14.64;45.42;101610.47;6120611;23;96422;-83
2021/10/17 03:47:08;;;;;;;;;;;;;;;14.59;45.71;101610.66;6110585;23;96495;-83
2021/10/17 03:49:35;;;;;;;;;;;;;;;14.55;45.79;101606.41;6104263;23;96813;-84
2021/10/17 03:52:03;;;;;;;;;;;;;;;14.32;46.17;101607.22;6104626;23;99090;-82
2021/10/17 03:54:31;;;;;;;;;;;;;;;14.46;46.21;101603.22;6106466;23;96625;-84
2021/10/17 03:56:57;;;;;;;;;;;;;;;14.47;46.11;101605.81;6109805;23;96495;-84
2021/10/17 03:59:24;;;;;;;;;;;;;;;14.50;45.89;101608.38;6106853;23;97828;-84
2021/10/17 04:01:51;;;;;;;;;;;;;;;14.47;45.79;101603.16;6107058;23;100500;-83
2021/10/17 04:04:19;;;;;;;;;;;;;;;14.30;45.85;101610.88;6077347;23;96743;-83
2021/10/17 04:06:45;;;;;;;;;;;;;;;14.32;45.95;101611.66;6105135;23;96912;-84
2021/10/17 04:09:20;;;;;;;;;;;;;;;14.28;45.64;101612.72;6102538;23;101295;-82
2021/10/17 04:11:49;;;;;;;;;;;;;;;14.36;46.00;101613.31;6101435;23;100347;-83
2021/10/17 04:14:16;;;;;;;;;;;;;;;14.31;46.05;101612.59;6102719;23;97275;-83
2021/10/17 04:16:42;;;;;;;;;;;;;;;14.28;46.14;101610.06;6105006;23;96802;-81
2021/10/17 04:19:10;;;;;;;;;;;;;;;14.30;46.28;101606.44;6117883;23;96882;-83
2021/10/17 04:21:36;;;;;;;;;;;;;;;14.10;46.90;101622.25;6117224;23;99885;-82
2021/10/17 04:24:03;;;;;;;;;;;;;;;14.18;46.77;101616.63;6118426;23;96455;-84
2021/10/17 04:26:30;;;;;;;;;;;;;;;14.15;46.90;101604.34;6122131;22;97732;-86
2021/10/17 04:28:58;;;;;;;;;;;;;;;14.17;46.85;101606.94;6122265;22;98948;-83
2021/10/17 04:31:26;;;;;;;;;;;;;;;14.11;47.11;101608.00;6122174;22;97777;-85
2021/10/17 04:33:54;;;;;;;;;;;;;;;14.05;47.36;101607.38;6123417;22;96667;-84
2021/10/17 04:36:22;;;;;;;;;;;;;;;13.94;47.67;101611.28;6123647;22;96568;-86
2021/10/17 04:38:51;;;;;;;;;;;;;;;13.91;47.78;101600.75;6096580;23;97793;-85
2021/10/17 04:41:18;;;;;;;;;;;;;;;14.01;47.70;101605.75;6122618;22;99883;-84
2021/10/17 04:43:47;;;;;;;;;;;;;;;13.86;48.00;101605.38;6097211;22;95895;-87
2021/10/17 04:46:17;;;;;;;;;;;;;;;13.70;48.23;101601.53;6123151;22;97804;-87
2021/10/17 04:48:43;;;;;;;;;;;;;;;13.77;47.90;101613.69;6122007;22;98131;-85
2021/10/17 04:51:10;;;;;;;;;;;;;;;13.85;47.77;101605.41;6122145;22;99171;-86
2021/10/17 04:53:37;;;;;;;;;;;;;;;13.82;47.71;101610.84;6123306;22;97366;-87
2021/10/17 04:56:04;;;;;;;;;;;;;;;13.90;47.83;101609.66;6117649;23;96583;-87
2021/10/17 04:58:32;;;;;;;;;;;;;;;13.87;47.75;101601.78;6114163;23;98596;-87
2021/10/17 05:00:59;;;;;;;;;;;;;;;13.77;47.82;101607.50;6110839;23;100502;-85
2021/10/17 05:03:35;;;;;;;;;;;;;;;13.75;48.35;101606.69;6105243;23;96661;-85
2021/10/17 05:06:03;;;;;;;;;;;;;;;13.78;48.04;101607.44;6104329;23;96658;-85
2021/10/17 05:08:30;;;;;;;;;;;;;;;13.62;48.42;101611.53;6102214;23;100427;-85
2021/10/17 05:10:57;;;;;;;;;;;;;;;13.58;48.20;101620.56;6102117;23;98046;-85
2021/10/17 05:13:24;;;;;;;;;;;;;;;13.65;48.27;101610.59;6104299;23;97137;-84
2021/10/17 05:15:51;;;;;;;;;;;;;;;13.55;48.17;101610.03;6102390;23;96872;-84
2021/10/17 05:18:18;;;;;;;;;;;;;;;13.65;48.21;101613.25;6100323;23;99348;-84
2021/10/17 05:20:47;;;;;;;;;;;;;;;13.64;48.24;101619.47;6100253;23;101671;-84
2021/10/17 05:23:14;;;;;;;;;;;;;;;13.71;48.09;101611.25;6102263;23;96583;-84
2021/10/17 05:25:41;;;;;;;;;;;;;;;13.65;48.39;101616.78;6102925;23;96823;-84
2021/10/17 05:28:08;;;;;;;;;;;;;;;13.61;48.51;101624.88;6101687;23;98867;-85
2021/10/17 05:30:36;;;;;;;;;;;;;;;13.63;48.47;101620.38;6101554;23;101595;-84
2021/10/17 05:33:05;;;;;;;;;;;;;;;13.65;48.46;101615.91;6102355;23;96542;-85
2021/10/17 05:35:32;;;;;;;;;;;;;;;13.64;48.26;101609.72;6102574;23;97145;-85
2021/10/17 05:38:02;;;;;;;;;;;;;;;13.65;48.09;101618.56;6102952;23;100402;-85
2021/10/17 05:40:31;;;;;;;;;;;;;;;13.68;48.09;101608.69;6103271;23;97642;-84
2021/10/17 05:42:57;;;;;;;;;;;;;;;13.75;47.71;101615.50;6103472;23;96636;-85
2021/10/17 05:45:25;;;;;;;;;;;;;;;13.84;47.74;101614.34;6103321;23;97105;-85
2021/10/17 05:47:52;;;;;;;;;;;;;;;13.90;47.36;101612.34;6101469;23;97795;-85
2021/10/17 05:50:19;;;;;;;;;;;;;;;13.90;47.15;101615.00;6102993;23;96580;-85
2021/10/17 05:52:46;;;;;;;;;;;;;;;13.95;47.17;101626.31;6101850;23;96763;-85
2021/10/17 05:55:14;;;;;;;;;;;;;;;13.78;47.19;101626.03;6102629;23;96616;-85
2021/10/17 05:57:43;;;;;;;;;;;;;;;13.88;46.82;101626.56;6102207;23;99470;-84
2021/10/17 06:00:12;;;;;;;;;;;;;;;13.85;46.72;101631.97;6101655;23;97726;-83
2021/10/17 06:02:41;;;;;;;;;;;;;;;14.13;46.70;101631.88;6102983;23;96822;-84
2021/10/17 06:05:10;;;;;;;;;;;;;;;13.99;46.76;101629.72;6102226;23;96728;-84
2021/10/17 06:07:38;;;;;;;;;;;;;;;13.99;46.55;101627.06;6101663;23;101202;-83
2021/10/17 06:10:13;;;;;;;;;;;;;;;13.97;46.74;101628.91;6114321;23;97787;-85
2021/10/17 06:12:42;;;;;;;;;;;;;;;14.09;46.56;101632.94;6113682;23;97044;-84
2021/10/17 06:15:12;;;;;;;;;;;;;;;13.98;46.52;101639.47;6107602;23;96731;-85
2021/10/17 06:17:40;;;;;;;;;;;;;;;14.02;46.95;101640.25;6114602;23;99585;-85
2021/10/17 06:20:07;;;;;;;;;;;;;;;14.02;46.42;101636.72;6118618;23;99411;-85
2021/10/17 06:22:37;;;;;;;;;;;;;;;14.09;46.43;101635.59;6120850;23;96966;-85
2021/10/17 06:25:04;;;;;;;;;;;;;;;13.98;45.86;101621.81;6120823;22;96345;-85
2021/10/17 06:27:31;;;;;;;;;;;;;;;14.26;45.76;101630.50;6120206;22;98051;-85
2021/10/17 06:30:05;;;;;;;;;;;;;;;14.19;45.90;101635.19;6120322;23;98281;-85
2021/10/17 06:32:33;;;;;;;;;;;;;;;14.33;45.34;101640.00;6084293;23;96584;-85
2021/10/17 06:35:01;;;;;;;;;;;;;;;14.40;45.67;101641.53;6105780;23;96903;-83
2021/10/17 06:37:29;;;;;;;;;;;;;;;14.43;45.15;101643.22;6104619;23;101001;-85
2021/10/17 06:39:57;;;;;;;;;;;;;;;14.35;45.32;101652.31;6108818;22;100186;-86
2021/10/17 06:42:24;;;;;;;;;;;;;;;14.50;45.00;101648.28;6167872;22;96527;-84
2021/10/17 06:44:51;;;;;;;;;;;;;;;14.46;45.19;101659.94;6163080;22;96683;-84
2021/10/17 06:47:19;;;;;;;;;;;;;;;14.58;45.14;101656.81;6160652;22;97817;-84
2021/10/17 06:49:47;;;;;;;;;;;;;;;14.60;44.56;101654.97;6160748;22;97644;-85
2021/10/17 06:52:14;;;;;;;;;;;;;;;14.65;45.02;101658.31;6160417;22;96765;-84
2021/10/17 06:54:41;;;;;;;;;;;;;;;14.65;44.77;101658.31;6163481;22;96980;-84
2021/10/17 06:57:11;;;;;;;;;;;;;;;14.60;44.93;101660.28;6162043;22;98200;-83
2021/10/17 06:59:41;;;;;;;;;;;;;;;14.71;44.81;101658.06;6160166;22;98216;-83
2021/10/17 07:02:08;;;;;;;;;;;;;;;14.70;45.07;101659.00;6136568;22;97152;-84
2021/10/17 07:04:43;;;;;;;;;;;;;;;14.59;45.14;101658.53;6165003;22;96749;-86
2021/10/17 07:07:11;;;;;;;;;;;;;;;14.58;45.31;101654.16;6164159;22;98856;-87
2021/10/17 07:15:00;;;;;;;;;;;;;;;14.83;45.02;101650.56;6167124;22;96703;-84
2021/10/17 07:17:29;;;;;;;;;;;;;;;14.81;45.02;101652.41;6169882;22;99996;-85
2021/10/17 07:19:57;;;;;;;;;;;;;;;14.90;44.66;101652.91;6167149;22;99014;-84
2021/10/17 07:22:24;;;;;;;;;;;;;;;15.04;44.06;101650.56;6169189;22;96534;-85
2021/10/17 07:24:52;;;;;;;;;;;;;;;15.09;44.32;101655.72;6143789;22;96650;-86
2021/10/17 07:27:20;;;;;;;;;;;;;;;15.06;44.29;101653.19;6169137;22;99213;-84
2021/10/17 07:29:50;;;;;;;;;;;;;;;15.00;44.07;101662.28;6168734;22;99922;-85
2021/10/17 07:32:17;;;;;;;;;;;;;;;15.13;43.85;101665.31;6165958;22;96628;-86
2021/10/17 07:34:48;;;;;;;;;;;;;;;15.18;43.70;101652.69;6139168;22;97041;-86
2021/10/17 07:37:31;;;;;;;;;;;;;;;15.25;43.55;101656.84;6164293;22;99999;-85
2021/10/17 07:40:06;;;;;;;;;;;;;;;15.31;43.42;101656.59;6162361;22;97721;-86
2021/10/17 07:42:35;;;;;;;;;;;;;;;15.31;43.55;101659.25;6164364;22;96720;-85
2021/10/17 07:45:11;;;;;;;;;;;;;;;15.26;43.49;101661.25;6165511;22;96906;-85
2021/10/17 07:47:42;;;;;;;;;;;;;;;15.24;43.50;101656.88;6165429;22;97814;-85
2021/10/17 07:50:12;;;;;;;;;;;;;;;15.11;43.26;101657.38;6164765;22;100754;-86
2021/10/17 07:52:39;;;;;;;;;;;;;;;15.28;43.28;101655.84;6165683;22;96605;-85
2021/10/17 07:55:08;;;;;;;;;;;;;;;15.48;43.07;101662.09;6143166;22;96613;-85
2021/10/17 07:57:46;;;;;;;;;;;;;;;15.39;42.69;101659.81;6169484;22;98199;-84
2021/10/17 08:00:13;;;;;;;;;;;;;;;15.42;42.86;101666.81;6176363;22;98174;-84
2021/10/17 08:02:41;;;;;;;;;;;;;;;15.36;43.06;101651.94;6181214;22;96371;-84
2021/10/17 08:05:09;;;;;;;;;;;;;;;15.51;42.71;101655.78;6178235;22;96748;-85
2021/10/17 08:07:37;;;;;;;;;;;;;;;15.72;42.33;101664.69;6167621;22;96919;-84
2021/10/17 08:10:04;;;;;;;;;;;;;;;15.65;42.54;101663.22;6165731;22;99091;-84
2021/10/17 08:12:34;;;;;;;;;;;;;;;15.57;42.53;101662.66;6171289;22;96610;-85
2021/10/17 08:15:02;;;;;;;;;;;;;;;15.59;42.23;101667.00;6167348;22;96745;-85
2021/10/17 08:17:29;;;;;;;;;;;;;;;15.59;42.44;101661.69;6169776;22;100001;-84
2021/10/17 08:19:57;;;;;;;;;;;;;;;15.80;42.34;101663.44;6165327;22;98956;-85
2021/10/17 08:22:24;;;;;;;;;;;;;;;15.97;42.11;101665.38;6139819;22;96672;-85
2021/10/17 08:24:51;;;;;;;;;;;;;;;16.08;41.75;101667.59;6167186;22;96853;-84
2021/10/17 08:30:03;;;;;;;;;;;;;;;15.87;42.10;101666.72;6172479;22;98492;-84
2021/10/17 08:32:31;;;;;;;;;;;;;;;15.83;42.58;101667.75;6169636;22;96578;-84
2021/10/17 08:34:59;;;;;;;;;;;;;;;15.92;42.32;101660.25;6168550;22;96706;-89
2021/10/17 08:37:27;;;;;;;;;;;;;;;16.10;42.22;101661.25;6172169;22;99404;-88
2021/10/17 08:39:55;;;;;;;;;;;;;;;16.24;42.09;101656.16;6173866;22;98087;-86
2021/10/17 08:42:23;;;;;;;;;;;;;;;16.33;41.89;101655.78;6172176;22;96625;-87
2021/10/17 08:44:55;;;;;;;;;;;;;;;16.37;41.49;101660.94;6169018;22;96846;-86
2021/10/17 08:47:26;;;;;;;;;;;;;;;16.51;41.55;101667.41;6167898;22;100063;-87
2021/10/17 08:49:57;;;;;;;;;;;;;;;16.56;41.12;101653.84;6168788;22;100974;-86
2021/10/17 08:52:26;;;;;;;;;;;;;;;16.43;41.09;101658.00;6169137;22;96484;-85
2021/10/17 08:54:53;;;;;;;;;;;;;;;15.80;42.14;101657.25;6167170;22;96552;-84
2021/10/17 08:57:20;;;;;;;;;;;;;;;16.06;41.42;101659.66;6141708;22;97650;-86
2021/10/17 09:00:00;;;;;;;;;;;;;;;16.61;40.30;101651.84;6174704;22;100174;-85
2021/10/17 09:02:29;;;;;;;;;;;;;;;16.77;40.12;101647.53;6179008;22;96431;-86
2021/10/17 09:05:00;;;;;;;;;;;;;;;16.30;40.53;101649.69;6151331;22;96696;-86
2021/10/17 09:07:27;;;;;;;;;;;;;;;16.66;39.66;101637.38;6171252;22;98968;-85
2021/10/17 09:10:08;;;;;;;;;;;;;;;16.83;39.12;101641.06;6172171;22;99258;-85
2021/10/17 09:12:35;;;;;;;;;;;;;;;17.12;39.06;101637.88;6179523;22;96494;-84
2021/10/17 09:15:23;;;;;;;;;;;;;;;17.32;38.47;101635.09;6181467;22;96290;-83
2021/10/17 09:18:11;;;;;;;;;;;;;;;17.71;37.69;101634.94;6154468;22;97670;-85
2021/10/17 09:23:34;;;;;;;;;;;;;;;18.05;36.77;101626.00;6180300;22;95830;-90
2021/10/17 09:31:36;;;;;;;;;;;;;;;17.40;37.49;101626.66;6181798;22;98208;-85
2021/10/17 09:34:11;;;;;;;;;;;;;;;17.39;37.97;101625.78;6179082;22;97183;-82
2021/10/17 09:36:52;;;;;;;;;;;;;;;17.23;38.12;101627.50;6182444;22;96265;-91
2021/10/17 09:39:33;;;;;;;;;;;;;;;17.08;38.36;101631.78;6156513;22;97710;-85
2021/10/17 09:42:00;;;;;;;;;;;;;;;16.67;39.04;101638.25;6182279;22;97936;-84
2021/10/17 09:44:39;;;;;;;;;;;;;;;17.00;38.64;101641.13;6182471;22;95892;-85
2021/10/17 09:47:07;;;;;;;;;;;;;;;17.23;38.39;101637.34;6182166;22;95970;-84
2021/10/17 09:49:35;;;;;;;;;;;;;;;17.49;38.12;101642.25;6175012;22;99576;-85
2021/10/17 09:52:15;;;;;;;;;;;;;;;17.41;38.45;101639.09;6181784;22;97925;-84
2021/10/17 09:54:44;;;;;;;;;;;;;;;17.39;38.15;101641.00;6182894;22;95885;-86
2021/10/17 09:57:13;;;;;;;;;;;;;;;17.35;37.75;101642.06;6183057;22;97363;-84
2021/10/17 09:59:41;;;;;;;;;;;;;;;17.91;37.27;101633.91;6181191;22;99848;-86
2021/10/17 10:02:09;;;;;;;;;;;;;;;18.01;36.68;101639.63;6181259;22;98949;-85
2021/10/17 10:04:38;;;;;;;;;;;;;;;17.77;37.46;101636.41;6181674;22;95851;-85
2021/10/17 10:07:07;;;;;;;;;;;;;;;18.41;36.16;101641.91;6183035;22;96452;-84
2021/10/17 10:09:34;;;;;;;;;;;;;;;18.56;35.98;101629.53;6181658;22;100062;-85
2021/10/17 10:14:47;;;;;;;;;;;;;;;18.02;36.77;101630.66;6180611;22;96518;-85
2021/10/17 10:17:15;;;;;;;;;;;;;;;18.15;36.65;101631.72;6182571;22;97369;-83
2021/10/17 10:19:44;;;;;;;;;;;;;;;17.86;37.43;101633.25;6182152;22;96638;-82
2021/10/17 10:22:14;;;;;;;;;;;;;;;18.03;37.16;101632.38;6181047;22;98702;-83
2021/10/17 10:24:41;;;;;;;;;;;;;;;17.71;37.67;101632.25;6182260;22;96149;-85
2021/10/17 10:27:11;;;;;;;;;;;;;;;17.48;38.61;101632.50;6182831;22;96078;-85
2021/10/17 10:29:38;;;;;;;;;;;;;;;18.35;37.16;101628.00;6181557;22;97226;-86
2021/10/17 10:32:07;;;;;;;;;;;;;;;18.62;36.56;101622.03;6182022;22;98377;-86
2021/10/17 10:34:48;;;;;;;;;;;;;;;17.86;37.87;101620.75;6181815;22;96560;-84
2021/10/17 10:40:19;;;;;;;;;;;;;;;17.79;38.42;101621.13;6179925;22;98661;-89
2021/10/17 10:42:52;;;;;;;;;;;;;;;18.66;36.99;101620.03;6180360;22;96743;-88
2021/10/17 10:45:37;;;;;;;;;;;;;;;18.47;37.56;101625.50;6182208;22;95937;-87
2021/10/17 10:48:22;;;;;;;;;;;;;;;18.78;37.24;101629.19;6157637;22;95983;-87
2021/10/17 10:50:53;;;;;;;;;;;;;;;18.67;37.36;101641.38;6154795;22;97877;-88
2021/10/17 10:53:40;;;;;;;;;;;;;;;18.10;38.28;101644.50;6153925;22;97759;-88
2021/10/17 10:56:12;;;;;;;;;;;;;;;18.10;38.65;101644.50;6179361;22;96537;-89
2021/10/17 10:58:58;;;;;;;;;;;;;;;17.84;39.04;101646.72;6179350;22;96481;-88
2021/10/17 11:07:23;;;;;;;;;;;;;;;17.11;40.64;101652.16;6179257;22;95966;-88
2021/10/17 11:09:56;;;;;;;;;;;;;;;18.00;39.29;101653.94;6184057;22;96079;-87
2021/10/17 11:15:39;;;;;;;;;;;;;;;18.46;38.40;101650.53;6179968;22;98959;-87
2021/10/17 11:20:50;;;;;;;;;;;;;;;18.51;38.62;101653.81;6176081;22;96621;-87
2021/10/17 11:23:18;;;;;;;;;;;;;;;18.63;38.20;101645.19;6181689;22;98929;-87
2021/10/17 11:25:51;;;;;;;;;;;;;;;18.51;38.80;101650.31;6155316;22;97557;-86
2021/10/17 11:31:07;;;;;;;;;;;;;;;18.72;38.08;101635.75;6180904;22;96621;-87
2021/10/17 11:33:49;;;;;;;;;;;;;;;18.39;39.29;101643.78;6182433;22;96927;-86
2021/10/17 11:39:27;;;;;;;;;;;;;;;18.09;39.27;101638.28;6180080;22;96375;-86
2021/10/17 11:42:03;;;;;;;;;;;;;;;17.57;40.76;101645.41;6110016;22;99294;-85
2021/10/17 11:50:18;;;;;;;;;;;;;;;18.36;39.64;101646.66;6153986;22;99513;-86
2021/10/17 11:52:55;;;;;;;;;;;;;;;18.08;40.13;101643.69;6182324;22;97877;-86
2021/10/17 11:55:33;;;;;;;;;;;;;;;18.02;40.34;101646.69;6150326;22;97511;-87
2021/10/17 11:58:03;;;;;;;;;;;;;;;18.51;39.65;101643.13;6182944;22;96814;-85
2021/10/17 12:03:19;;;;;;;;;;;;;;;18.32;40.34;101634.38;6182170;22;96446;-88
2021/10/17 12:05:46;;;;;;;;;;;;;;;18.61;39.54;101625.66;6178550;22;98346;-88
2021/10/17 12:08:20;;;;;;;;;;;;;;;18.61;39.58;101624.78;6182201;22;100471;-87
2021/10/17 12:11:10;;;;;;;;;;;;;;;18.27;40.32;101633.75;6182910;22;96138;-88
2021/10/17 12:16:28;;;;;;;;;;;;;;;18.59;39.98;101619.53;6180836;22;98523;-87
2021/10/17 12:19:02;;;;;;;;;;;;;;;18.51;40.32;101620.88;6182556;22;97027;-89
2021/10/17 12:21:32;;;;;;;;;;;;;;;18.00;41.19;101621.84;6153137;22;96367;-88
2021/10/17 12:24:07;;;;;;;;;;;;;;;18.20;41.05;101624.31;6153655;22;97040;-86
2021/10/17 12:26:34;;;;;;;;;;;;;;;17.76;42.06;101619.50;6177305;22;99187;-87
2021/10/17 12:29:09;;;;;;;;;;;;;;;18.20;40.92;101618.97;6178232;22;99107;-89
2021/10/17 12:31:40;;;;;;;;;;;;;;;18.66;40.44;101612.03;6176771;22;96518;-89
2021/10/17 12:34:19;;;;;;;;;;;;;;;18.66;40.46;101614.69;6177371;22;96706;-88
2021/10/17 12:36:47;;;;;;;;;;;;;;;18.89;40.02;101618.78;6173373;22;100159;-88
2021/10/17 12:39:15;;;;;;;;;;;;;;;19.09;39.66;101614.03;6148265;22;97721;-88
2021/10/17 12:47:10;;;;;;;;;;;;;;;18.90;39.91;101609.81;6179224;22;96931;-89
2021/10/17 12:52:25;;;;;;;;;;;;;;;18.87;40.23;101609.97;6152846;22;99392;-86
2021/10/17 12:54:59;;;;;;;;;;;;;;;18.82;40.28;101606.69;6156426;22;96414;-87
2021/10/17 12:57:34;;;;;;;;;;;;;;;18.83;40.12;101605.75;6168610;22;99834;-87
2021/10/17 13:00:05;;;;;;;;;;;;;;;18.66;40.59;101604.84;6180631;22;97644;-87
2021/10/17 13:02:40;;;;;;;;;;;;;;;17.38;42.96;101608.06;6181360;22;96406;-86
2021/10/17 13:05:17;;;;;;;;;;;;;;;17.93;42.34;101607.91;6182849;22;95917;-86
2021/10/17 13:07:45;;;;;;;;;;;;;;;17.89;42.38;101607.22;6181651;22;98059;-88
2021/10/17 13:15:53;;;;;;;;;;;;;;;18.37;41.70;101600.22;6181227;22;97110;-88
2021/10/17 13:21:34;;;;;;;;;;;;;;;18.51;41.46;101597.63;6179596;22;96352;-88
2021/10/17 13:32:17;;;;;;;;;;;;;;;17.89;42.83;101609.03;6180022;22;96965;-85
2021/10/17 13:40:26;;;;;;;;;;;;;;;17.74;43.22;101618.72;6179605;22;98906;-90
2021/10/17 13:45:57;;;;;;;;;;;;;;;17.51;43.89;101624.34;6180259;22;96490;-89
2021/10/17 13:48:24;;;;;;;;;;;;;;;17.49;43.77;101627.09;6183372;22;95884;-89
2021/10/17 13:53:33;;;;;;;;;;;;;;;17.53;43.48;101622.44;6107979;22;99313;-90
2021/10/17 13:56:07;;;;;;;;;;;;;;;17.35;44.20;101613.53;6156531;22;99789;-88
2021/10/17 13:58:40;;;;;;;;;;;;;;;17.59;43.52;101619.44;6179401;22;96501;-89
2021/10/17 14:01:28;;;;;;;;;;;;;;;17.51;43.79;101609.19;6173360;22;98591;-91
2021/10/17 14:15:17;;;;;;;;;;;;;;;17.78;43.64;101606.06;6175739;22;98318;-90
2021/10/17 14:17:51;;;;;;;;;;;;;;;17.93;43.83;101608.78;6174082;22;96527;-89
2021/10/17 14:25:40;;;;;;;;;;;;;;;17.82;43.69;101596.94;6110823;22;96644;-88
2021/10/17 14:28:30;;;;;;;;;;;;;;;17.80;43.76;101594.34;6182501;22;96393;-86
2021/10/17 14:36:26;;;;;;;;;;;;;;;17.74;43.89;101597.31;6172496;22;99356;-90
2021/10/17 15:00:55;;;;;;;;;;;;;;;17.52;44.48;101615.38;6168031;22;96634;-82
2021/10/17 15:03:23;;;;;;;;;;;;;;;17.39;44.46;101616.94;6161655;22;96783;-82
2021/10/17 15:08:32;;;;;;;;;;;;;;;17.19;44.74;101617.94;6171716;22;98284;-83
2021/10/17 15:11:05;;;;;;;;;;;;;;;17.24;44.87;101610.56;6171255;22;97223;-82
2021/10/17 15:13:32;;;;;;;;;;;;;;;17.00;45.30;101615.28;6171726;22;96769;-83